Time;durP1;ratioP1;P1;durP2;ratioP2;P2;SDS_P1;SDS_P2;PMS_P1;PMS_P2;Temp;Humidity;BMP_temperature;BMP_pressure;BME280_temperature;BME280_humidity;BME280_pressure;Samples;Min_cycle;Max_cycle;Signal;HPM_P1;HPM_P2
2021/10/03 00:00:49;;;;;;;10.77;6.13;;;;;;;;;;4996011;28;20057;-86
2021/10/03 00:03:22;;;;;;;9.73;6.43;;;;;;;;;;4996019;28;20177;-87
2021/10/03 00:05:49;;;;;;;10.55;6.45;;;;;;;;;;4996732;28;20054;-86
2021/10/03 00:08:16;;;;;;;11.50;6.95;;;;;;;;;;4996259;28;20054;-86
2021/10/03 00:10:44;;;;;;;8.60;5.88;;;;;;;;;;4995802;28;20050;-86
2021/10/03 00:13:11;;;;;;;9.25;5.97;;;;;;;;;;4995664;28;20050;-87
2021/10/03 00:15:39;;;;;;;9.27;5.97;;;;;;;;;;4996211;28;20046;-86
2021/10/03 00:18:08;;;;;;;7.78;5.70;;;;;;;;;;4996042;28;20535;-86
2021/10/03 00:20:37;;;;;;;8.77;5.85;;;;;;;;;;4995478;28;20046;-86
2021/10/03 00:23:04;;;;;;;9.10;5.55;;;;;;;;;;4995711;28;20046;-86
2021/10/03 00:25:31;;;;;;;9.07;5.57;;;;;;;;;;4995564;28;20053;-86
2021/10/03 00:27:58;;;;;;;9.32;5.90;;;;;;;;;;4997080;28;20042;-85
2021/10/03 00:30:25;;;;;;;9.05;6.03;;;;;;;;;;4998042;28;20054;-84
2021/10/03 00:32:53;;;;;;;10.35;6.15;;;;;;;;;;4997842;28;20046;-85
2021/10/03 00:35:21;;;;;;;10.27;6.13;;;;;;;;;;4997657;28;20050;-85
2021/10/03 00:37:49;;;;;;;10.23;5.90;;;;;;;;;;4998060;28;20498;-85
2021/10/03 00:40:17;;;;;;;8.50;5.90;;;;;;;;;;4997849;28;20321;-85
2021/10/03 00:42:44;;;;;;;8.00;5.35;;;;;;;;;;4998540;28;20050;-85
2021/10/03 00:45:13;;;;;;;10.27;5.60;;;;;;;;;;5001223;28;20053;-85
2021/10/03 00:47:40;;;;;;;8.35;5.25;;;;;;;;;;5000143;28;20056;-85
2021/10/03 00:50:10;;;;;;;8.30;5.30;;;;;;;;;;4998450;28;20061;-85
2021/10/03 00:52:37;;;;;;;9.18;5.60;;;;;;;;;;4998204;28;20061;-85
2021/10/03 00:55:06;;;;;;;11.75;8.15;;;;;;;;;;4997766;28;20050;-85
2021/10/03 00:57:33;;;;;;;10.85;6.68;;;;;;;;;;4998036;28;20528;-84
2021/10/03 01:00:00;;;;;;;13.07;8.10;;;;;;;;;;5001901;28;20053;-84
2021/10/03 01:02:27;;;;;;;12.27;6.05;;;;;;;;;;5000587;28;20401;-85
2021/10/03 01:04:54;;;;;;;11.23;5.75;;;;;;;;;;4999189;28;20046;-85
2021/10/03 01:07:21;;;;;;;10.02;5.38;;;;;;;;;;4998719;28;20405;-85
2021/10/03 01:09:48;;;;;;;9.65;5.95;;;;;;;;;;4998488;28;20073;-85
2021/10/03 01:12:17;;;;;;;9.15;5.43;;;;;;;;;;4998753;28;20054;-85
2021/10/03 01:14:43;;;;;;;8.15;4.97;;;;;;;;;;5001294;28;20085;-84
2021/10/03 01:17:11;;;;;;;8.02;5.43;;;;;;;;;;4999743;28;20048;-85
2021/10/03 01:19:39;;;;;;;23.40;11.60;;;;;;;;;;4999192;28;20042;-85
2021/10/03 01:22:07;;;;;;;88.50;45.65;;;;;;;;;;4999820;28;20042;-85
2021/10/03 01:24:34;;;;;;;45.50;23.52;;;;;;;;;;4999351;28;20054;-85
2021/10/03 01:27:03;;;;;;;22.92;13.98;;;;;;;;;;5000706;28;20054;-84
2021/10/03 01:29:31;;;;;;;10.30;6.15;;;;;;;;;;5004615;28;20474;-85
2021/10/03 01:31:58;;;;;;;7.57;4.95;;;;;;;;;;5000130;28;20058;-85
2021/10/03 01:34:25;;;;;;;9.52;5.45;;;;;;;;;;4996312;28;20105;-84
2021/10/03 01:36:52;;;;;;;10.35;5.97;;;;;;;;;;4998033;28;20046;-85
2021/10/03 01:39:20;;;;;;;10.48;5.05;;;;;;;;;;4997626;28;20081;-85
2021/10/03 01:41:47;;;;;;;8.20;5.43;;;;;;;;;;5007676;28;20175;-85
2021/10/03 01:44:14;;;;;;;8.30;4.80;;;;;;;;;;5006866;28;20054;-85
2021/10/03 01:46:41;;;;;;;9.00;5.53;;;;;;;;;;5001393;28;20074;-85
2021/10/03 01:49:08;;;;;;;8.93;5.68;;;;;;;;;;4998629;28;20069;-84
2021/10/03 01:51:35;;;;;;;8.75;5.68;;;;;;;;;;4999482;28;20081;-85
2021/10/03 01:54:02;;;;;;;7.82;5.03;;;;;;;;;;4999114;28;20050;-85
2021/10/03 01:56:31;;;;;;;8.80;4.70;;;;;;;;;;4998385;28;20105;-85
2021/10/03 01:59:00;;;;;;;7.88;5.28;;;;;;;;;;4999668;28;20046;-85
2021/10/03 02:01:30;;;;;;;9.43;5.15;;;;;;;;;;4999504;28;20489;-85
2021/10/03 02:03:57;;;;;;;7.93;5.15;;;;;;;;;;5003355;28;20057;-85
2021/10/03 02:06:25;;;;;;;6.68;4.63;;;;;;;;;;5003875;28;20046;-86
2021/10/03 02:08:53;;;;;;;8.63;5.00;;;;;;;;;;4997748;28;20058;-85
2021/10/03 02:11:20;;;;;;;8.02;5.25;;;;;;;;;;4999243;28;20046;-85
2021/10/03 02:13:48;;;;;;;9.13;5.60;;;;;;;;;;5001073;28;20073;-84
2021/10/03 02:16:15;;;;;;;7.97;4.57;;;;;;;;;;5001387;28;20571;-85
2021/10/03 02:18:45;;;;;;;8.63;4.72;;;;;;;;;;5001305;28;20457;-85
2021/10/03 02:21:12;;;;;;;8.83;4.80;;;;;;;;;;5001953;28;20050;-85
2021/10/03 02:23:40;;;;;;;7.30;4.75;;;;;;;;;;5001377;28;20073;-85
2021/10/03 02:26:07;;;;;;;8.55;4.95;;;;;;;;;;5000907;28;20050;-85
2021/10/03 02:28:35;;;;;;;8.15;5.30;;;;;;;;;;5001271;28;20457;-84
2021/10/03 02:31:07;;;;;;;8.02;4.60;;;;;;;;;;5000884;28;20079;-84
2021/10/03 02:33:34;;;;;;;8.68;4.55;;;;;;;;;;4999636;28;20490;-85
2021/10/03 02:36:02;;;;;;;6.63;4.45;;;;;;;;;;5002742;28;20047;-85
2021/10/03 02:38:29;;;;;;;8.40;4.50;;;;;;;;;;5007529;28;20399;-84
2021/10/03 02:40:57;;;;;;;8.48;5.28;;;;;;;;;;4998744;28;20112;-84
2021/10/03 02:43:25;;;;;;;8.98;5.03;;;;;;;;;;4997389;28;20046;-85
2021/10/03 02:45:54;;;;;;;8.73;4.30;;;;;;;;;;4997660;28;20053;-84
2021/10/03 02:48:24;;;;;;;9.05;5.22;;;;;;;;;;4997478;28;20441;-85
2021/10/03 02:50:52;;;;;;;7.68;4.90;;;;;;;;;;4997162;28;20053;-85
2021/10/03 02:53:21;;;;;;;7.13;4.55;;;;;;;;;;4999897;28;20050;-86
2021/10/03 02:55:48;;;;;;;8.23;4.80;;;;;;;;;;5001699;28;20050;-85
2021/10/03 02:58:15;;;;;;;7.47;4.80;;;;;;;;;;4999562;28;20050;-85
2021/10/03 03:00:43;;;;;;;8.05;4.97;;;;;;;;;;5000251;28;20065;-86
2021/10/03 03:03:10;;;;;;;8.25;4.82;;;;;;;;;;4999001;28;20046;-84
2021/10/03 03:05:38;;;;;;;8.52;4.97;;;;;;;;;;4999099;28;20140;-86
2021/10/03 03:08:06;;;;;;;11.85;5.82;;;;;;;;;;4998360;28;20054;-85
2021/10/03 03:10:34;;;;;;;8.23;4.95;;;;;;;;;;4997134;28;20472;-85
2021/10/03 03:13:01;;;;;;;8.13;4.78;;;;;;;;;;4997154;28;20452;-85
2021/10/03 03:15:28;;;;;;;9.98;5.03;;;;;;;;;;4996514;28;20050;-85
2021/10/03 03:17:55;;;;;;;8.07;5.00;;;;;;;;;;4997359;28;20050;-85
2021/10/03 03:20:22;;;;;;;10.40;5.43;;;;;;;;;;4997212;28;20050;-85
2021/10/03 03:22:51;;;;;;;8.77;5.00;;;;;;;;;;4996457;28;20058;-84
2021/10/03 03:25:18;;;;;;;8.63;5.82;;;;;;;;;;4997689;28;20560;-84
2021/10/03 03:27:45;;;;;;;9.65;5.90;;;;;;;;;;4998016;28;20066;-85
2021/10/03 03:30:13;;;;;;;12.25;6.45;;;;;;;;;;5004227;28;20065;-85
2021/10/03 03:32:40;;;;;;;14.02;5.63;;;;;;;;;;5000802;28;20097;-85
2021/10/03 03:35:09;;;;;;;8.73;5.28;;;;;;;;;;4996650;28;20096;-84
2021/10/03 03:37:37;;;;;;;9.65;5.45;;;;;;;;;;4997575;28;20047;-85
2021/10/03 03:40:07;;;;;;;7.35;4.53;;;;;;;;;;4997671;28;20073;-85
2021/10/03 03:42:34;;;;;;;;;;;;;;;;;;4998173;28;20493;-85
2021/10/03 03:45:01;;;;;;;8.82;4.97;;;;;;;;;;4997072;28;20419;-85
2021/10/03 03:47:28;;;;;;;7.07;4.78;;;;;;;;;;4997872;28;20050;-85
2021/10/03 03:49:55;;;;;;;8.73;5.18;;;;;;;;;;4997945;28;20054;-84
2021/10/03 03:52:22;;;;;;;9.05;5.00;;;;;;;;;;4997693;28;20047;-85
2021/10/03 03:54:49;;;;;;;7.25;4.50;;;;;;;;;;4997713;28;20050;-85
2021/10/03 03:57:20;;;;;;;8.18;4.78;;;;;;;;;;4998471;28;20521;-85
2021/10/03 03:59:47;;;;;;;7.50;5.05;;;;;;;;;;4997967;28;20058;-85
2021/10/03 04:02:15;;;;;;;6.93;4.68;;;;;;;;;;4998779;28;20101;-85
2021/10/03 04:04:42;;;;;;;8.73;5.22;;;;;;;;;;4998409;28;20074;-85
2021/10/03 04:07:09;;;;;;;9.85;5.80;;;;;;;;;;4998342;28;20449;-85
2021/10/03 04:09:36;;;;;;;12.23;5.50;;;;;;;;;;4997969;28;20058;-85
2021/10/03 04:12:03;;;;;;;7.68;4.75;;;;;;;;;;4998800;28;20050;-85
2021/10/03 04:14:31;;;;;;;9.30;4.97;;;;;;;;;;4997633;28;20485;-86
2021/10/03 04:16:58;;;;;;;7.03;4.70;;;;;;;;;;4998152;28;20046;-85
2021/10/03 04:19:24;;;;;;;7.70;4.85;;;;;;;;;;4998158;28;20054;-85
2021/10/03 04:21:52;;;;;;;9.55;4.60;;;;;;;;;;4997948;28;20556;-85
2021/10/03 04:24:18;;;;;;;8.50;5.32;;;;;;;;;;4998251;28;20445;-85
2021/10/03 04:26:45;;;;;;;8.88;5.32;;;;;;;;;;4998794;28;20050;-85
2021/10/03 04:29:12;;;;;;;10.10;5.43;;;;;;;;;;4999637;28;20050;-85
2021/10/03 04:31:40;;;;;;;8.38;4.50;;;;;;;;;;4999820;28;20054;-86
2021/10/03 04:34:08;;;;;;;7.28;4.55;;;;;;;;;;4998651;28;20042;-85
2021/10/03 04:36:35;;;;;;;8.25;5.18;;;;;;;;;;5000240;28;20057;-85
2021/10/03 04:39:02;;;;;;;11.27;4.93;;;;;;;;;;5002891;28;20050;-85
2021/10/03 04:41:29;;;;;;;9.00;4.93;;;;;;;;;;5005754;28;20046;-85
2021/10/03 04:43:56;;;;;;;9.25;5.22;;;;;;;;;;5006102;28;20042;-84
2021/10/03 04:46:23;;;;;;;7.22;4.10;;;;;;;;;;4999071;28;20054;-86
2021/10/03 04:48:51;;;;;;;9.82;4.47;;;;;;;;;;4999539;28;20046;-85
2021/10/03 04:51:18;;;;;;;7.57;4.68;;;;;;;;;;4999423;28;20053;-85
2021/10/03 04:53:45;;;;;;;7.63;4.53;;;;;;;;;;5005385;28;20057;-85
2021/10/03 04:56:12;;;;;;;6.85;4.45;;;;;;;;;;5012532;28;20340;-84
2021/10/03 04:58:39;;;;;;;7.53;4.60;;;;;;;;;;5007148;28;20050;-85
2021/10/03 05:01:05;;;;;;;8.38;4.85;;;;;;;;;;4996957;28;20055;-85
2021/10/03 05:03:35;;;;;;;7.72;4.68;;;;;;;;;;4996355;28;20042;-83
2021/10/03 05:06:03;;;;;;;8.10;4.97;;;;;;;;;;4997016;28;20058;-86
2021/10/03 05:08:30;;;;;;;8.80;5.35;;;;;;;;;;4997741;28;20469;-85
2021/10/03 05:10:57;;;;;;;9.13;5.20;;;;;;;;;;4998263;28;20134;-85
2021/10/03 05:13:24;;;;;;;8.35;4.78;;;;;;;;;;5023817;23;20049;-63
2021/10/03 05:15:51;;;;;;;8.38;4.60;;;;;;;;;;5012038;28;20053;-63
2021/10/03 05:18:18;;;;;;;10.73;5.05;;;;;;;;;;5013035;28;20050;-60
2021/10/03 05:20:45;;;;;;;7.20;4.95;;;;;;;;;;5012563;28;20072;-60
2021/10/03 05:23:13;;;;;;;9.07;4.72;;;;;;;;;;5012267;28;20082;-63
2021/10/03 05:25:40;;;;;;;7.75;4.82;;;;;;;;;;5013109;28;20133;-61
2021/10/03 05:28:07;;;;;;;8.98;4.60;;;;;;;;;;5012420;28;20058;-63
2021/10/03 05:30:34;;;;;;;8.88;5.13;;;;;;;;;;5012951;28;20060;-63
2021/10/03 05:33:01;;;;;;;8.13;4.80;;;;;;;;;;5012604;28;20056;-63
2021/10/03 05:35:28;;;;;;;9.93;5.18;;;;;;;;;;5012252;28;20383;-62
2021/10/03 05:37:55;;;;;;;10.00;5.55;;;;;;;;;;5012438;28;20410;-62
2021/10/03 05:40:23;;;;;;;8.57;4.85;;;;;;;;;;5012152;28;20049;-59
2021/10/03 05:42:50;;;;;;;9.35;5.25;;;;;;;;;;5012514;28;20052;-61
2021/10/03 05:45:17;;;;;;;8.60;5.63;;;;;;;;;;5011487;28;20052;-62
2021/10/03 05:47:44;;;;;;;11.32;6.95;;;;;;;;;;5012332;28;20050;-63
2021/10/03 05:50:11;;;;;;;8.88;5.47;;;;;;;;;;5012422;28;20430;-61
2021/10/03 05:52:39;;;;;;;11.48;5.65;;;;;;;;;;5012212;28;20054;-63
2021/10/03 05:55:06;;;;;;;10.15;6.20;;;;;;;;;;5012059;28;20049;-62
2021/10/03 05:57:34;;;;;;;9.43;5.43;;;;;;;;;;5012333;28;20061;-62
2021/10/03 06:00:01;;;;;;;8.85;5.72;;;;;;;;;;5012080;28;20057;-61
2021/10/03 06:02:28;;;;;;;9.23;5.07;;;;;;;;;;5012064;28;20041;-64
2021/10/03 06:04:55;;;;;;;8.15;5.10;;;;;;;;;;5012052;28;20046;-63
2021/10/03 06:07:22;;;;;;;8.30;5.00;;;;;;;;;;5012166;28;20060;-63
2021/10/03 06:09:49;;;;;;;8.63;4.97;;;;;;;;;;5012170;28;20065;-62
2021/10/03 06:12:16;;;;;;;8.23;5.03;;;;;;;;;;5012163;28;20050;-63
2021/10/03 06:14:44;;;;;;;10.32;5.70;;;;;;;;;;5011781;28;20054;-63
2021/10/03 06:17:11;;;;;;;10.23;4.80;;;;;;;;;;5012150;28;20053;-63
2021/10/03 06:19:38;;;;;;;9.57;5.50;;;;;;;;;;5011845;28;20054;-60
2021/10/03 06:22:06;;;;;;;10.75;5.65;;;;;;;;;;5012016;28;20392;-63
2021/10/03 06:24:33;;;;;;;8.98;5.63;;;;;;;;;;5012339;28;20487;-60
2021/10/03 06:27:00;;;;;;;12.15;5.97;;;;;;;;;;5011880;28;20428;-63
2021/10/03 06:29:27;;;;;;;8.93;5.38;;;;;;;;;;5012280;28;20503;-62
2021/10/03 06:31:55;;;;;;;9.85;5.30;;;;;;;;;;5011985;28;20415;-63
2021/10/03 06:34:22;;;;;;;11.82;5.93;;;;;;;;;;5011684;28;20057;-64
2021/10/03 06:36:49;;;;;;;9.98;5.47;;;;;;;;;;5011829;28;20057;-62
2021/10/03 06:39:16;;;;;;;11.30;5.78;;;;;;;;;;5012061;28;20046;-62
2021/10/03 06:41:43;;;;;;;12.45;6.53;;;;;;;;;;5011648;28;20056;-61
2021/10/03 06:44:11;;;;;;;9.05;5.32;;;;;;;;;;5012203;28;20050;-61
2021/10/03 06:46:38;;;;;;;10.93;5.15;;;;;;;;;;5012177;28;20064;-62
2021/10/03 06:49:07;;;;;;;8.32;4.70;;;;;;;;;;5011807;28;20513;-63
2021/10/03 06:51:34;;;;;;;10.18;5.03;;;;;;;;;;5011726;28;20056;-63
2021/10/03 06:54:01;;;;;;;8.23;4.65;;;;;;;;;;5011843;28;20479;-63
2021/10/03 06:56:28;;;;;;;9.32;5.35;;;;;;;;;;5000045;28;20427;-63
2021/10/03 06:58:55;;;;;;;10.02;4.63;;;;;;;;;;4995587;28;20050;-64
2021/10/03 07:01:21;;;;;;;11.02;5.43;;;;;;;;;;4995610;28;20052;-60
2021/10/03 07:03:50;;;;;;;8.52;5.18;;;;;;;;;;4995280;28;20050;-63
2021/10/03 07:06:18;;;;;;;9.55;5.10;;;;;;;;;;4995682;28;20529;-62
2021/10/03 07:08:45;;;;;;;9.68;5.28;;;;;;;;;;4995495;28;20061;-62
2021/10/03 07:11:12;;;;;;;8.30;4.85;;;;;;;;;;4995524;28;20512;-61
2021/10/03 07:13:40;;;;;;;10.63;5.03;;;;;;;;;;4995075;28;20062;-63
2021/10/03 07:16:07;;;;;;;10.43;5.40;;;;;;;;;;4995727;28;20526;-62
2021/10/03 07:18:34;;;;;;;7.95;4.80;;;;;;;;;;4995778;28;20050;-60
2021/10/03 07:21:03;;;;;;;8.32;5.40;;;;;;;;;;4995627;28;20086;-60
2021/10/03 07:23:32;;;;;;;8.30;4.82;;;;;;;;;;4995208;28;20050;-63
2021/10/03 07:25:59;;;;;;;9.03;4.87;;;;;;;;;;4995725;28;20573;-63
2021/10/03 07:28:26;;;;;;;8.82;5.10;;;;;;;;;;4994871;28;20059;-63
2021/10/03 07:30:53;;;;;;;8.43;4.90;;;;;;;;;;4995311;28;20420;-61
2021/10/03 07:33:22;;;;;;;8.45;4.50;;;;;;;;;;4995233;28;20134;-63
2021/10/03 07:35:49;;;;;;;8.60;4.93;;;;;;;;;;4995383;28;20061;-62
2021/10/03 07:38:16;;;;;;;9.57;4.93;;;;;;;;;;4995162;28;20056;-64
2021/10/03 07:40:45;;;;;;;8.75;5.25;;;;;;;;;;4994812;28;20054;-62
2021/10/03 07:43:13;;;;;;;9.20;4.30;;;;;;;;;;4994702;28;20412;-62
2021/10/03 07:45:40;;;;;;;7.63;4.55;;;;;;;;;;4995053;28;20046;-61
2021/10/03 07:48:07;;;;;;;7.20;4.30;;;;;;;;;;4994770;28;20050;-64
2021/10/03 07:50:34;;;;;;;8.90;4.53;;;;;;;;;;4994820;28;20050;-62
2021/10/03 07:53:01;;;;;;;8.93;4.97;;;;;;;;;;4994660;28;20058;-60
2021/10/03 07:55:29;;;;;;;7.10;4.30;;;;;;;;;;4998833;28;20049;-63
2021/10/03 07:58:02;;;;;;;7.25;4.50;;;;;;;;;;5014379;28;20454;-61
2021/10/03 08:00:30;;;;;;;16.20;10.98;;;;;;;;;;5011957;28;20136;-63
2021/10/03 08:02:57;;;;;;;33.67;22.10;;;;;;;;;;5014226;28;20046;-63
2021/10/03 08:05:24;;;;;;;50.60;32.83;;;;;;;;;;5014189;28;20138;-62
2021/10/03 08:07:51;;;;;;;39.63;26.52;;;;;;;;;;5013335;28;20054;-61
2021/10/03 08:10:18;;;;;;;15.40;9.35;;;;;;;;;;5013728;28;20046;-61
2021/10/03 08:12:47;;;;;;;10.70;6.38;;;;;;;;;;5013997;28;20056;-63
2021/10/03 08:15:16;;;;;;;9.63;6.22;;;;;;;;;;5013647;28;20057;-61
2021/10/03 08:17:43;;;;;;;10.45;6.05;;;;;;;;;;5013696;28;20050;-62
2021/10/03 08:20:11;;;;;;;10.57;5.22;;;;;;;;;;5013938;28;20046;-62
2021/10/03 08:22:38;;;;;;;8.40;5.03;;;;;;;;;;5014139;28;20058;-62
2021/10/03 08:25:07;;;;;;;7.40;4.70;;;;;;;;;;5013616;28;20050;-62
2021/10/03 08:27:35;;;;;;;21.55;5.57;;;;;;;;;;5013684;28;20479;-63
2021/10/03 08:30:03;;;;;;;8.23;4.22;;;;;;;;;;5013631;28;20397;-64
2021/10/03 08:32:31;;;;;;;7.57;6.05;;;;;;;;;;5013888;28;20430;-62
2021/10/03 08:34:58;;;;;;;10.52;5.32;;;;;;;;;;5013398;28;20061;-64
2021/10/03 08:37:25;;;;;;;8.20;5.03;;;;;;;;;;5013658;28;20054;-62
2021/10/03 08:39:53;;;;;;;8.80;5.22;;;;;;;;;;5013550;28;20050;-61
2021/10/03 08:42:20;;;;;;;7.53;4.40;;;;;;;;;;5013482;28;20103;-62
2021/10/03 08:44:47;;;;;;;9.82;5.15;;;;;;;;;;5013365;28;20058;-62
2021/10/03 08:47:15;;;;;;;9.57;4.57;;;;;;;;;;5013475;28;20050;-63
2021/10/03 08:49:44;;;;;;;7.95;4.60;;;;;;;;;;5013310;28;20104;-64
2021/10/03 08:52:11;;;;;;;8.68;5.13;;;;;;;;;;5013574;28;20050;-61
2021/10/03 08:54:39;;;;;;;8.60;4.72;;;;;;;;;;5013058;28;20487;-62
2021/10/03 08:57:07;;;;;;;8.52;4.93;;;;;;;;;;4995613;28;20050;-62
2021/10/03 08:59:34;;;;;;;10.00;5.13;;;;;;;;;;4993457;28;20492;-61
2021/10/03 09:02:06;;;;;;;9.30;4.82;;;;;;;;;;4993424;28;20061;-62
2021/10/03 09:04:34;;;;;;;9.23;5.25;;;;;;;;;;4993182;28;20325;-60
2021/10/03 09:07:09;;;;;;;6.90;4.43;;;;;;;;;;4993906;28;20054;-65
2021/10/03 09:09:49;;;;;;;9.35;5.38;;;;;;;;;;4993467;28;20051;-63
2021/10/03 09:12:26;;;;;;;;;;;;;;;;;;4993585;28;20086;-63
2021/10/03 09:14:54;;;;;;;8.73;5.00;;;;;;;;;;4992933;28;19922;-63
2021/10/03 09:17:21;;;;;;;10.27;5.53;;;;;;;;;;4993132;28;20435;-61
2021/10/03 09:20:10;;;;;;;11.40;6.47;;;;;;;;;;4992460;28;20073;-63
2021/10/03 09:23:05;;;;;;;8.38;4.78;;;;;;;;;;4991769;28;20104;-62
2021/10/03 09:25:34;;;;;;;8.73;4.53;;;;;;;;;;4992978;28;20057;-61
2021/10/03 09:28:01;;;;;;;7.95;4.43;;;;;;;;;;4992785;28;20051;-63
2021/10/03 09:30:28;;;;;;;9.18;4.72;;;;;;;;;;4992944;28;20054;-63
2021/10/03 09:32:57;;;;;;;9.52;4.50;;;;;;;;;;4992855;28;20047;-63
2021/10/03 09:35:25;;;;;;;7.50;4.35;;;;;;;;;;4992551;28;20189;-62
2021/10/03 09:37:54;;;;;;;7.88;4.53;;;;;;;;;;4992945;28;20058;-63
2021/10/03 09:40:22;;;;;;;12.50;4.72;;;;;;;;;;4992737;28;20050;-61
2021/10/03 09:42:53;;;;;;;8.00;4.53;;;;;;;;;;4992618;28;20058;-63
2021/10/03 09:45:22;;;;;;;9.25;5.18;;;;;;;;;;4992553;28;20046;-63
2021/10/03 09:48:02;;;;;;;12.45;5.65;;;;;;;;;;4992710;28;20050;-64
2021/10/03 09:50:30;;;;;;;10.33;5.83;;;;;;;;;;4992433;28;20050;-62
2021/10/03 09:52:59;;;;;;;8.70;5.07;;;;;;;;;;4993076;28;20046;-62
2021/10/03 09:55:26;;;;;;;9.30;4.53;;;;;;;;;;4996258;28;20046;-60
2021/10/03 09:57:55;;;;;;;9.25;5.15;;;;;;;;;;5012492;28;20515;-62
2021/10/03 10:00:23;;;;;;;8.73;5.50;;;;;;;;;;5012237;28;20054;-61
2021/10/03 10:02:52;;;;;;;9.70;5.53;;;;;;;;;;5012234;28;20115;-63
2021/10/03 10:05:24;;;;;;;9.07;5.03;;;;;;;;;;5012180;28;20141;-60
2021/10/03 10:07:51;;;;;;;9.32;5.22;;;;;;;;;;5012455;28;20060;-63
2021/10/03 10:10:20;;;;;;;9.75;5.07;;;;;;;;;;5012105;28;20049;-63
2021/10/03 10:12:53;;;;;;;8.60;4.90;;;;;;;;;;5012096;28;20137;-63
2021/10/03 10:15:24;;;;;;;9.25;5.38;;;;;;;;;;5011693;28;20506;-63
2021/10/03 10:17:51;;;;;;;11.20;6.40;;;;;;;;;;5012166;28;20054;-61
2021/10/03 10:20:38;;;;;;;9.38;5.40;;;;;;;;;;5011749;28;20060;-64
2021/10/03 10:23:08;;;;;;;7.70;4.18;;;;;;;;;;5011913;28;20510;-64
2021/10/03 10:25:43;;;;;;;7.50;4.35;;;;;;;;;;5011783;28;20132;-64
2021/10/03 10:28:13;;;;;;;9.15;5.55;;;;;;;;;;5011915;28;20060;-64
2021/10/03 10:31:03;;;;;;;8.68;5.25;;;;;;;;;;5012051;28;20053;-63
2021/10/03 10:34:02;;;;;;;9.40;5.18;;;;;;;;;;5015367;28;20050;-63
2021/10/03 10:36:31;;;;;;;11.77;6.97;;;;;;;;;;5016338;28;20517;-62
2021/10/03 10:39:21;;;;;;;10.30;5.85;;;;;;;;;;5015410;28;20058;-62
2021/10/03 10:41:50;;;;;;;;;;;;;;;;;;5016284;28;20427;-63
2021/10/03 10:44:40;;;;;;;8.07;4.18;;;;;;;;;;5015570;28;19921;-68
2021/10/03 10:47:14;;;;;;;9.70;5.00;;;;;;;;;;5016110;28;20061;-69
2021/10/03 10:49:47;;;;;;;12.32;7.57;;;;;;;;;;5015432;28;20045;-62
2021/10/03 10:52:29;;;;;;;12.23;6.57;;;;;;;;;;5015650;28;20088;-67
2021/10/03 10:55:24;;;;;;;13.98;7.00;;;;;;;;;;5014056;28;20054;-66
2021/10/03 10:58:13;;;;;;;11.30;5.10;;;;;;;;;;5006372;28;20518;-67
2021/10/03 11:01:07;;;;;;;9.18;5.15;;;;;;;;;;5004586;28;20046;-66
2021/10/03 11:04:19;;;;;;;32.63;15.60;;;;;;;;;;5003502;28;20054;-67
2021/10/03 11:06:57;;;;;;;7.65;4.53;;;;;;;;;;4993412;28;20050;-70
2021/10/03 11:09:25;;;;;;;44.97;25.85;;;;;;;;;;4995479;28;20081;-66
2021/10/03 11:12:12;;;;;;;53.28;30.02;;;;;;;;;;4995448;28;20050;-63
2021/10/03 11:14:43;;;;;;;27.17;14.57;;;;;;;;;;4996807;28;20575;-62
2021/10/03 11:17:13;;;;;;;20.27;10.05;;;;;;;;;;5035797;23;20045;-62
2021/10/03 11:19:50;;;;;;;11.40;5.75;;;;;;;;;;5032436;28;20049;-60
2021/10/03 11:22:23;;;;;;;25.75;14.18;;;;;;;;;;5014972;28;20482;-62
2021/10/03 11:24:52;;;;;;;15.63;7.75;;;;;;;;;;5004228;28;20050;-62
2021/10/03 11:27:20;;;;;;;15.00;8.10;;;;;;;;;;4995300;28;20423;-62
2021/10/03 11:29:50;;;;;;;12.20;7.35;;;;;;;;;;4995007;28;20050;-61
2021/10/03 11:32:20;;;;;;;9.23;5.22;;;;;;;;;;4995378;28;20458;-62
2021/10/03 11:34:49;;;;;;;8.90;4.80;;;;;;;;;;4996013;28;20126;-62
2021/10/03 11:37:23;;;;;;;7.70;4.55;;;;;;;;;;4995322;28;20057;-60
2021/10/03 11:39:52;;;;;;;7.13;4.05;;;;;;;;;;4994976;28;20059;-62
2021/10/03 11:42:29;;;;;;;6.55;3.65;;;;;;;;;;4994978;28;20061;-61
2021/10/03 11:45:01;;;;;;;8.30;4.38;;;;;;;;;;4994198;28;20069;-60
2021/10/03 11:47:36;;;;;;;7.53;4.82;;;;;;;;;;4995185;28;20054;-60
2021/10/03 11:50:04;;;;;;;7.25;3.70;;;;;;;;;;4994878;28;20060;-62
2021/10/03 11:52:34;;;;;;;7.40;4.25;;;;;;;;;;4995190;28;20205;-63
2021/10/03 11:55:04;;;;;;;6.65;3.78;;;;;;;;;;4995196;28;20439;-62
2021/10/03 11:57:31;;;;;;;;;;;;;;;;;;5015425;28;20574;-61
2021/10/03 12:00:20;;;;;;;7.55;3.83;;;;;;;;;;5014500;28;20493;-62
2021/10/03 12:02:49;;;;;;;8.20;4.28;;;;;;;;;;5014334;28;20101;-61
2021/10/03 12:05:21;;;;;;;7.50;4.07;;;;;;;;;;5013848;28;20045;-63
2021/10/03 12:08:07;;;;;;;6.78;3.90;;;;;;;;;;5014271;28;20415;-62
2021/10/03 12:10:36;;;;;;;9.70;6.28;;;;;;;;;;5014074;28;20152;-62
2021/10/03 12:13:12;;;;;;;8.00;5.00;;;;;;;;;;5014258;28;20097;-60
2021/10/03 12:15:55;;;;;;;7.45;3.65;;;;;;;;;;5013685;28;20061;-59
2021/10/03 12:18:41;;;;;;;8.43;5.05;;;;;;;;;;5014177;28;20065;-61
2021/10/03 12:21:09;;;;;;;8.93;5.85;;;;;;;;;;5013779;28;20112;-62
2021/10/03 12:23:48;;;;;;;10.07;7.32;;;;;;;;;;5013994;28;20050;-61
2021/10/03 12:26:18;;;;;;;13.93;10.10;;;;;;;;;;5014045;28;20515;-61
2021/10/03 12:28:53;;;;;;;7.45;4.22;;;;;;;;;;5013785;28;20046;-60
2021/10/03 12:31:58;;;;;;;7.10;4.00;;;;;;;;;;5013771;28;20050;-59
2021/10/03 12:34:39;;;;;;;9.85;6.35;;;;;;;;;;4953049;29;20058;-61
2021/10/03 12:37:09;;;;;;;9.80;6.10;;;;;;;;;;5008092;28;20056;-61
2021/10/03 12:39:38;;;;;;;12.77;8.65;;;;;;;;;;5013301;28;20046;-61
2021/10/03 12:42:11;;;;;;;9.45;5.00;;;;;;;;;;5013681;28;20050;-61
2021/10/03 12:44:40;;;;;;;8.15;4.10;;;;;;;;;;5013817;28;20141;-62
2021/10/03 12:47:10;;;;;;;6.93;4.18;;;;;;;;;;5013215;28;20486;-61
2021/10/03 12:49:37;;;;;;;7.93;3.90;;;;;;;;;;5013448;28;20046;-61
2021/10/03 12:52:06;;;;;;;8.85;4.00;;;;;;;;;;5013165;28;20053;-62
2021/10/03 12:54:34;;;;;;;8.25;4.05;;;;;;;;;;5013452;28;20123;-62
2021/10/03 12:57:01;;;;;;;6.78;4.05;;;;;;;;;;5012964;28;20041;-62
2021/10/03 12:59:28;;;;;;;7.05;4.22;;;;;;;;;;5013339;28;20503;-61
2021/10/03 13:01:55;;;;;;;7.20;4.03;;;;;;;;;;5012589;28;20411;-62
2021/10/03 13:04:24;;;;;;;6.45;3.70;;;;;;;;;;5013070;28;20476;-62
2021/10/03 13:06:51;;;;;;;7.13;4.38;;;;;;;;;;5012946;28;20057;-60
2021/10/03 13:09:19;;;;;;;7.03;4.05;;;;;;;;;;5012935;28;20429;-62
2021/10/03 13:11:46;;;;;;;7.15;3.90;;;;;;;;;;5012956;28;20046;-60
2021/10/03 13:14:13;;;;;;;6.85;4.20;;;;;;;;;;5012964;28;20056;-66
2021/10/03 13:16:41;;;;;;;7.72;4.00;;;;;;;;;;5012264;28;20057;-61
2021/10/03 13:19:07;;;;;;;10.82;6.10;;;;;;;;;;5012771;28;20058;-61
2021/10/03 13:21:36;;;;;;;8.20;5.32;;;;;;;;;;5012236;28;20368;-59
2021/10/03 13:24:03;;;;;;;8.23;4.57;;;;;;;;;;5012561;28;20054;-62
2021/10/03 13:26:31;;;;;;;6.25;3.90;;;;;;;;;;5012863;28;20501;-61
2021/10/03 13:28:58;;;;;;;6.38;3.72;;;;;;;;;;5013339;28;20053;-62
2021/10/03 13:31:25;;;;;;;6.50;3.58;;;;;;;;;;5013372;28;20514;-60
2021/10/03 13:33:52;;;;;;;5.90;3.38;;;;;;;;;;5014466;28;20050;-62
2021/10/03 13:36:23;;;;;;;8.05;4.00;;;;;;;;;;5015446;28;20133;-60
2021/10/03 13:38:56;;;;;;;6.00;3.67;;;;;;;;;;5014750;28;20053;-64
2021/10/03 13:41:23;;;;;;;7.47;3.53;;;;;;;;;;5014393;28;20056;-60
2021/10/03 13:43:50;;;;;;;7.35;4.15;;;;;;;;;;5014119;28;20125;-62
2021/10/03 13:46:17;;;;;;;12.00;5.53;;;;;;;;;;5015031;28;20053;-59
2021/10/03 13:48:45;;;;;;;6.90;4.25;;;;;;;;;;5015162;28;20053;-60
2021/10/03 13:51:12;;;;;;;7.15;4.70;;;;;;;;;;5013719;28;20300;-60
2021/10/03 13:53:39;;;;;;;7.68;3.65;;;;;;;;;;5013771;28;20046;-60
2021/10/03 13:56:08;;;;;;;7.10;3.95;;;;;;;;;;5004191;28;20448;-60
2021/10/03 13:58:35;;;;;;;5.63;3.35;;;;;;;;;;4994451;28;20097;-61
2021/10/03 14:01:03;;;;;;;6.40;3.67;;;;;;;;;;4993860;28;20055;-61
2021/10/03 14:03:30;;;;;;;9.00;4.35;;;;;;;;;;4994308;28;20384;-63
2021/10/03 14:05:57;;;;;;;8.25;4.43;;;;;;;;;;4994352;28;20050;-62
2021/10/03 14:08:24;;;;;;;6.20;4.10;;;;;;;;;;4997658;28;20343;-60
2021/10/03 14:10:52;;;;;;;5.85;3.60;;;;;;;;;;4996225;28;20088;-61
2021/10/03 14:13:20;;;;;;;5.93;3.90;;;;;;;;;;4996636;28;20093;-61
2021/10/03 14:15:48;;;;;;;7.20;4.45;;;;;;;;;;4996925;28;20459;-62
2021/10/03 14:18:15;;;;;;;6.30;3.95;;;;;;;;;;4996629;28;20148;-60
2021/10/03 14:20:42;;;;;;;5.70;3.50;;;;;;;;;;4996514;28;20085;-62
2021/10/03 14:23:11;;;;;;;8.07;3.70;;;;;;;;;;4996386;28;20084;-63
2021/10/03 14:25:41;;;;;;;5.57;3.30;;;;;;;;;;4996537;28;20050;-62
2021/10/03 14:28:08;;;;;;;7.40;4.20;;;;;;;;;;4996596;28;20132;-62
2021/10/03 14:30:36;;;;;;;7.18;4.07;;;;;;;;;;4996246;28;20072;-62
2021/10/03 14:33:05;;;;;;;7.57;3.75;;;;;;;;;;4996194;28;20147;-62
2021/10/03 14:35:32;;;;;;;7.93;3.58;;;;;;;;;;4996060;28;20054;-62
2021/10/03 14:38:00;;;;;;;6.28;3.55;;;;;;;;;;4996483;28;20488;-63
2021/10/03 14:40:27;;;;;;;8.57;3.50;;;;;;;;;;4996287;28;20068;-63
2021/10/03 14:42:54;;;;;;;6.63;3.47;;;;;;;;;;4996211;28;20117;-62
2021/10/03 14:45:22;;;;;;;5.82;3.28;;;;;;;;;;4995816;28;20135;-62
2021/10/03 14:47:52;;;;;;;6.72;4.20;;;;;;;;;;4995848;28;20062;-62
2021/10/03 14:50:23;;;;;;;7.55;4.25;;;;;;;;;;4997527;28;20566;-60
2021/10/03 14:52:52;;;;;;;7.53;3.95;;;;;;;;;;4999289;28;20113;-63